Flight Track Log - Related Links

Times and Time Zones

All times are in EDT time to prevent confusion due to time zone crossing. See the LOF3416 flight status page for this flight to view local times or setup timezone preferences in your user account.

Time Position Orientation Groundspeed Altitude Reporting Facility
EDT Latitude Longitude Course Direction KTS MPH feet Rate Location/Type
Sun 07:45:16 PM 37.2967 -93.1386 41° Northeast 267 307 6,400  Level Kansas City Center
Sun 07:46:18 PM 37.3656 -93.0828 33° Northeast 283 326 8,700 2,244 Climbing Kansas City Center
Sun 07:47:19 PM 37.4333 -93.0261 34° Northeast 289 333 11,000 2,000 Climbing Kansas City Center
Sun 07:48:00 PM 37.7232 -92.9436 38° Northeast  Level FlightAware Approximate
Sun 07:48:21 PM 37.5161 -92.9567 34° Northeast 293 337 12,800  Level Kansas City Center
Sun 07:49:00 PM 37.8020 -92.8647 38° Northeast  Level FlightAware Approximate
Sun 07:49:23 PM 37.5881 -92.8969 33° Northeast 301 346 14,300  Level Kansas City Center
Sun 07:50:24 PM 37.6633 -92.8367 32° Northeast 314 361 15,800 1,366 Climbing Kansas City Center
Sun 07:51:26 PM 37.7386 -92.7725 34° Northeast 322 371 17,100 1,161 Climbing Kansas City Center
Sun 07:52:28 PM 37.8125 -92.7114 33° Northeast 330 380 18,200 1,171 Climbing Kansas City Center
Sun 07:53:29 PM 37.9006 -92.6719 19° North 335 386 19,500 1,268 Climbing Kansas City Center
Sun 07:54:31 PM 37.9897 -92.6319 19° North 339 390 20,800 1,258 Climbing Kansas City Center
Sun 07:55:33 PM 38.0814 -92.5903 20° North 346 398 22,100 1,366 Climbing Kansas City Center
Sun 07:56:34 PM 38.1881 -92.5297 24° Northeast 354 407 23,600 1,268 Climbing Kansas City Center
Sun 07:57:36 PM 38.2617 -92.4625 36° Northeast 356 410 24,700 1,161 Climbing Kansas City Center
Sun 07:58:38 PM 38.3425 -92.3872 36° Northeast 357 411 26,000 1,113 Climbing Kansas City Center
Sun 07:59:40 PM 38.4375 -92.2967 37° Northeast 354 407 27,000 488 Climbing Kansas City Center
Sun 08:00:41 PM 38.5256 -92.2144 36° Northeast 380 437 27,000  Level Kansas City Center
Sun 08:01:43 PM 38.6181 -92.1267 37° Northeast 404 465 27,000  Level Kansas City Center
Sun 08:02:45 PM 38.7150 -92.0358 36° Northeast 422 486 27,000  Level Kansas City Center
Sun 08:03:46 PM 38.8133 -91.9428 36° Northeast 434 499 27,000  Level Kansas City Center
Sun 08:04:48 PM 38.9131 -91.8475 37° Northeast 441 507 27,000  Level Kansas City Center
Sun 08:05:50 PM 39.0136 -91.7528 36° Northeast 447 514 27,000  Level Kansas City Center
Sun 08:06:51 PM 39.1186 -91.6525 37° Northeast 444 511 27,000  Level Kansas City Center
Sun 08:07:53 PM 39.2158 -91.5597 36° Northeast 438 504 27,000  Level Kansas City Center
Sun 08:08:55 PM 39.3156 -91.4631 37° Northeast 442 509 27,000  Level Kansas City Center
Sun 08:09:57 PM 39.4139 -91.3681 37° Northeast 443 510 27,000  Level Kansas City Center
Sun 08:10:58 PM 39.5119 -91.2725 37° Northeast 442 509 27,000  Level Kansas City Center
Sun 08:12:00 PM 39.6294 -91.1581 37° Northeast 440 506 27,000  Level Kansas City Center
Sun 08:13:02 PM 39.7272 -91.0619 37° Northeast 439 505 27,000  Level Kansas City Center
Sun 08:14:03 PM 39.8269 -90.9625 37° Northeast 437 503 27,000  Level Kansas City Center
Sun 08:15:05 PM 39.9231 -90.8653 38° Northeast 436 502 27,000  Level Kansas City Center
Sun 08:17:02 PM 40.1022 -90.6836 38° Northeast 435 501 27,000  Level Chicago Center
Sun 08:18:04 PM 40.2089 -90.5753 38° Northeast 431 496 27,000  Level Chicago Center
Sun 08:19:06 PM 40.3039 -90.4778 38° Northeast 432 497 27,000  Level Chicago Center
Sun 08:20:08 PM 40.3994 -90.3819 37° Northeast 431 496 27,000  Level Chicago Center
Sun 08:21:11 PM 40.4944 -90.2828 38° Northeast 433 498 27,000  Level Chicago Center
Sun 08:22:13 PM 40.5936 -90.1806 38° Northeast 438 504 27,000  Level Chicago Center
Sun 08:23:15 PM 40.6878 -90.0814 39° Northeast 437 503 27,000  Level Chicago Center
Sun 08:24:17 PM 40.8050 -89.9636 37° Northeast 442 509 27,000 -48 Level Chicago Center
Sun 08:25:19 PM 40.8994 -89.8633 39° Northeast 437 503 26,900 -484 Descending Chicago Center
Sun 08:26:21 PM 40.9769 -89.7356 51° Northeast 445 512 26,000 -968 Descending Chicago Center
Sun 08:27:23 PM 41.0531 -89.5906 55° Northeast 443 510 24,900 -1,355 Descending Chicago Center
Sun 08:28:25 PM 41.1219 -89.4625 54° Northeast 426 490 23,200 -1,790 Descending Chicago Center
Sun 08:29:27 PM 41.1878 -89.3358 55° Northeast 416 479 21,200 -1,935 Descending Chicago Center
Sun 08:30:29 PM 41.2517 -89.2133 55° Northeast 406 467 19,200 -2,032 Descending Chicago Center
Sun 08:31:31 PM 41.3186 -89.0833 56° Northeast 391 450 17,000 -1,984 Descending Chicago Center
Sun 08:32:33 PM 41.3778 -88.9689 55° Northeast 379 436 15,100 -1,887 Descending Chicago Center
Sun 08:33:35 PM 41.4350 -88.8589 55° Northeast 365 420 13,100 -1,887 Descending Chicago Center
Sun 08:34:37 PM 41.4897 -88.7497 56° Northeast 355 409 11,200 -1,016 Descending Chicago Center
Sun 08:35:39 PM 41.5494 -88.6136 60° Northeast 354 407 11,000 -97 Descending Chicago Center
Sun 08:36:41 PM 41.5956 -88.4967 62° Northeast 356 410 11,000  Level Chicago Center
Sun 08:37:43 PM 41.6536 -88.3878 54° Northeast 363 418 11,000 -339 Level Chicago Center
Sun 08:38:45 PM 41.7139 -88.2831 52° Northeast 357 411 10,300 -532 Descending Chicago Center
Sun 08:39:47 PM 41.7756 -88.1811 51° Northeast 353 406 9,900 -581 Descending Chicago Center
Sun 08:40:49 PM 41.8233 -88.0981 52° Northeast 279 321 9,100 -1,113 Descending Chicago Center
Sun 08:41:51 PM 41.8706 -88.0133 53° Northeast 281 323 7,600 -1,016 Descending Chicago Center
Sun 08:42:53 PM 41.8847 -87.8917 81° East 281 323 7,000 -581 Descending Chicago Center
Sun 08:43:55 PM 41.8833 -87.7972 91° East 260 299 6,400 -1,210 Descending Chicago Center
Sun 08:44:57 PM 41.8972 -87.7161 77° East 247 284 4,500 -1,645 Descending Chicago Center
Sun 08:45:59 PM 41.9567 -87.7239 354° North 239 275 3,000 -1,210 Descending Chicago Center
Sun 08:47:01 PM 41.9694 -87.7931 284° West 213 245 2,000 -919 Descending Chicago Center
Sun 08:48:03 PM 41.9683 -87.8542 269° West 169 194 1,100 -871 Descending Chicago Center
Sun 08:50:00 PM 41.9667 -87.9000 296° West  Level FlightAware Approximate

Login

Don't have an account? Register now (free) for customized features, flight alerts, and more!